sensor_id;sensor_type;location;lat;lon;timestamp;pressure;altitude;pressure_sealevel;temperature;humidity
52957;BME280;38819;42.692;23.342;2023-07-30T00:01:39;95104.09;;;23.15;52.15
52957;BME280;38819;42.692;23.342;2023-07-30T00:04:05;95102.06;;;23.12;52.06
52957;BME280;38819;42.692;23.342;2023-07-30T00:06:30;95111.03;;;23.05;53.37
52957;BME280;38819;42.692;23.342;2023-07-30T00:08:56;95111.78;;;23.02;53.50
52957;BME280;38819;42.692;23.342;2023-07-30T00:11:21;95096.38;;;22.98;53.79
52957;BME280;38819;42.692;23.342;2023-07-30T00:13:47;95106.63;;;22.97;53.72
52957;BME280;38819;42.692;23.342;2023-07-30T00:16:12;95094.72;;;22.89;53.62
52957;BME280;38819;42.692;23.342;2023-07-30T00:18:37;95098.59;;;22.85;54.29
52957;BME280;38819;42.692;23.342;2023-07-30T00:21:03;95095.09;;;22.88;53.55
52957;BME280;38819;42.692;23.342;2023-07-30T00:23:28;95096.63;;;22.85;53.07
52957;BME280;38819;42.692;23.342;2023-07-30T00:25:54;95099.47;;;22.92;52.98
52957;BME280;38819;42.692;23.342;2023-07-30T00:28:19;95090.41;;;22.92;52.77
52957;BME280;38819;42.692;23.342;2023-07-30T00:30:45;95098.97;;;22.83;53.63
52957;BME280;38819;42.692;23.342;2023-07-30T00:33:11;95087.91;;;22.80;54.17
52957;BME280;38819;42.692;23.342;2023-07-30T00:35:36;95093.41;;;22.80;53.79
52957;BME280;38819;42.692;23.342;2023-07-30T00:38:01;95091.03;;;22.78;53.77
52957;BME280;38819;42.692;23.342;2023-07-30T00:40:27;95084.03;;;22.84;53.47
52957;BME280;38819;42.692;23.342;2023-07-30T00:42:52;95083.56;;;22.79;54.03
52957;BME280;38819;42.692;23.342;2023-07-30T00:45:18;95083.88;;;22.73;53.93
52957;BME280;38819;42.692;23.342;2023-07-30T00:47:43;95090.94;;;22.71;53.89
52957;BME280;38819;42.692;23.342;2023-07-30T00:50:10;95089.72;;;22.68;53.75
52957;BME280;38819;42.692;23.342;2023-07-30T00:52:36;95096.41;;;22.67;53.94
52957;BME280;38819;42.692;23.342;2023-07-30T00:55:02;95094.38;;;22.61;54.18
52957;BME280;38819;42.692;23.342;2023-07-30T00:57:28;95094.00;;;22.62;53.81
52957;BME280;38819;42.692;23.342;2023-07-30T00:59:54;95092.31;;;22.54;54.12
52957;BME280;38819;42.692;23.342;2023-07-30T01:02:21;95097.38;;;22.52;54.21
52957;BME280;38819;42.692;23.342;2023-07-30T01:04:46;95088.25;;;22.44;54.02
52957;BME280;38819;42.692;23.342;2023-07-30T01:07:12;95091.31;;;22.39;53.99
52957;BME280;38819;42.692;23.342;2023-07-30T01:09:38;95090.13;;;22.40;54.49
52957;BME280;38819;42.692;23.342;2023-07-30T01:12:04;95095.63;;;22.40;54.15
52957;BME280;38819;42.692;23.342;2023-07-30T01:14:31;95096.09;;;22.42;53.71
52957;BME280;38819;42.692;23.342;2023-07-30T01:16:58;95098.34;;;22.36;53.90
52957;BME280;38819;42.692;23.342;2023-07-30T01:19:23;95103.75;;;22.29;54.18
52957;BME280;38819;42.692;23.342;2023-07-30T01:21:48;95107.28;;;22.30;54.32
52957;BME280;38819;42.692;23.342;2023-07-30T01:24:14;95105.34;;;22.30;54.52
52957;BME280;38819;42.692;23.342;2023-07-30T01:26:44;95109.31;;;22.33;54.36
52957;BME280;38819;42.692;23.342;2023-07-30T01:29:16;95097.09;;;22.30;54.69
52957;BME280;38819;42.692;23.342;2023-07-30T01:31:49;95089.56;;;22.27;54.67
52957;BME280;38819;42.692;23.342;2023-07-30T01:34:18;95098.91;;;22.23;54.90
52957;BME280;38819;42.692;23.342;2023-07-30T01:36:45;95097.31;;;22.21;55.09
52957;BME280;38819;42.692;23.342;2023-07-30T01:39:11;95096.16;;;22.23;54.83
52957;BME280;38819;42.692;23.342;2023-07-30T01:41:40;95098.50;;;22.20;55.14
52957;BME280;38819;42.692;23.342;2023-07-30T01:44:05;95098.81;;;22.15;55.13
52957;BME280;38819;42.692;23.342;2023-07-30T01:46:31;95098.00;;;22.15;55.22
52957;BME280;38819;42.692;23.342;2023-07-30T01:48:56;95104.69;;;22.14;55.23
52957;BME280;38819;42.692;23.342;2023-07-30T01:51:22;95096.44;;;22.14;55.53
52957;BME280;38819;42.692;23.342;2023-07-30T01:53:47;95097.53;;;22.09;55.55
52957;BME280;38819;42.692;23.342;2023-07-30T01:56:12;95100.22;;;22.06;56.13
52957;BME280;38819;42.692;23.342;2023-07-30T01:58:38;95098.31;;;22.10;56.00
52957;BME280;38819;42.692;23.342;2023-07-30T02:01:03;95103.41;;;22.08;56.16
52957;BME280;38819;42.692;23.342;2023-07-30T02:03:28;95098.31;;;22.10;55.83
52957;BME280;38819;42.692;23.342;2023-07-30T02:05:54;95102.25;;;22.09;55.76
52957;BME280;38819;42.692;23.342;2023-07-30T02:08:19;95100.59;;;22.04;56.35
52957;BME280;38819;42.692;23.342;2023-07-30T02:10:54;95103.72;;;22.02;56.22
52957;BME280;38819;42.692;23.342;2023-07-30T02:13:20;95105.13;;;21.93;56.75
52957;BME280;38819;42.692;23.342;2023-07-30T02:15:45;95096.41;;;21.87;56.71
52957;BME280;38819;42.692;23.342;2023-07-30T02:18:10;95096.03;;;21.89;56.60
52957;BME280;38819;42.692;23.342;2023-07-30T02:20:36;95107.81;;;21.89;56.86
52957;BME280;38819;42.692;23.342;2023-07-30T02:23:01;95108.88;;;21.81;57.20
52957;BME280;38819;42.692;23.342;2023-07-30T02:25:26;95113.56;;;21.80;57.19
52957;BME280;38819;42.692;23.342;2023-07-30T02:27:52;95112.41;;;21.81;57.09
52957;BME280;38819;42.692;23.342;2023-07-30T02:30:17;95116.38;;;21.84;56.74
52957;BME280;38819;42.692;23.342;2023-07-30T02:32:43;95117.53;;;21.83;57.16
52957;BME280;38819;42.692;23.342;2023-07-30T02:35:08;95122.97;;;21.79;57.08
52957;BME280;38819;42.692;23.342;2023-07-30T02:37:34;95117.41;;;21.76;57.49
52957;BME280;38819;42.692;23.342;2023-07-30T02:39:59;95119.75;;;21.74;57.58
52957;BME280;38819;42.692;23.342;2023-07-30T02:42:25;95123.22;;;21.71;57.35
52957;BME280;38819;42.692;23.342;2023-07-30T02:44:50;95128.66;;;21.67;57.24
52957;BME280;38819;42.692;23.342;2023-07-30T02:47:15;95130.59;;;21.67;57.17
52957;BME280;38819;42.692;23.342;2023-07-30T02:49:41;95125.34;;;21.58;57.26
52957;BME280;38819;42.692;23.342;2023-07-30T02:52:06;95122.28;;;21.63;56.99
52957;BME280;38819;42.692;23.342;2023-07-30T02:54:32;95115.13;;;21.58;57.83
52957;BME280;38819;42.692;23.342;2023-07-30T02:56:57;95122.59;;;21.58;57.68
52957;BME280;38819;42.692;23.342;2023-07-30T02:59:23;95122.66;;;21.61;57.34
52957;BME280;38819;42.692;23.342;2023-07-30T03:01:48;95130.00;;;21.54;57.42
52957;BME280;38819;42.692;23.342;2023-07-30T03:04:14;95121.81;;;21.38;57.94
52957;BME280;38819;42.692;23.342;2023-07-30T03:06:39;95125.81;;;21.40;57.76
52957;BME280;38819;42.692;23.342;2023-07-30T03:09:05;95125.22;;;21.31;57.93
52957;BME280;38819;42.692;23.342;2023-07-30T03:11:30;95136.75;;;21.17;58.20
52957;BME280;38819;42.692;23.342;2023-07-30T03:13:55;95139.19;;;21.22;57.65
52957;BME280;38819;42.692;23.342;2023-07-30T03:16:21;95135.22;;;21.20;58.15
52957;BME280;38819;42.692;23.342;2023-07-30T03:18:46;95138.13;;;21.27;57.82
52957;BME280;38819;42.692;23.342;2023-07-30T03:21:11;95136.50;;;21.26;57.99
52957;BME280;38819;42.692;23.342;2023-07-30T03:23:37;95138.19;;;21.31;57.98
52957;BME280;38819;42.692;23.342;2023-07-30T03:26:02;95136.63;;;21.33;57.32
52957;BME280;38819;42.692;23.342;2023-07-30T03:28:28;95125.28;;;21.35;57.09
52957;BME280;38819;42.692;23.342;2023-07-30T03:30:53;95132.50;;;21.43;56.85
52957;BME280;38819;42.692;23.342;2023-07-30T03:33:20;95131.78;;;21.46;56.37
52957;BME280;38819;42.692;23.342;2023-07-30T03:35:45;95127.97;;;21.51;56.24
52957;BME280;38819;42.692;23.342;2023-07-30T03:38:10;95130.00;;;21.54;56.31
52957;BME280;38819;42.692;23.342;2023-07-30T03:40:36;95132.38;;;21.55;56.13
52957;BME280;38819;42.692;23.342;2023-07-30T03:43:01;95131.94;;;21.53;56.08
52957;BME280;38819;42.692;23.342;2023-07-30T03:45:27;95128.41;;;21.53;56.30
52957;BME280;38819;42.692;23.342;2023-07-30T03:47:52;95131.94;;;21.53;56.51
52957;BME280;38819;42.692;23.342;2023-07-30T03:50:17;95135.13;;;21.55;56.26
52957;BME280;38819;42.692;23.342;2023-07-30T03:52:43;95137.53;;;21.57;56.19
52957;BME280;38819;42.692;23.342;2023-07-30T03:55:08;95135.84;;;21.52;56.49
52957;BME280;38819;42.692;23.342;2023-07-30T03:57:34;95135.50;;;21.54;56.01
52957;BME280;38819;42.692;23.342;2023-07-30T04:00:00;95138.59;;;21.52;56.08
52957;BME280;38819;42.692;23.342;2023-07-30T04:02:26;95154.00;;;21.57;56.03
52957;BME280;38819;42.692;23.342;2023-07-30T04:04:51;95150.59;;;21.63;56.25
52957;BME280;38819;42.692;23.342;2023-07-30T04:07:17;95148.94;;;21.59;56.08
52957;BME280;38819;42.692;23.342;2023-07-30T04:09:42;95142.63;;;21.58;55.92
52957;BME280;38819;42.692;23.342;2023-07-30T04:12:08;95146.66;;;21.64;56.20
52957;BME280;38819;42.692;23.342;2023-07-30T04:14:34;95144.03;;;21.72;56.02
52957;BME280;38819;42.692;23.342;2023-07-30T04:17:00;95150.78;;;21.74;55.71
52957;BME280;38819;42.692;23.342;2023-07-30T04:19:25;95147.19;;;21.70;55.62
52957;BME280;38819;42.692;23.342;2023-07-30T04:21:51;95148.03;;;21.74;56.15
52957;BME280;38819;42.692;23.342;2023-07-30T04:24:16;95145.69;;;21.76;55.90
52957;BME280;38819;42.692;23.342;2023-07-30T04:26:41;95157.19;;;21.82;55.71
52957;BME280;38819;42.692;23.342;2023-07-30T04:29:07;95154.09;;;21.83;55.71
52957;BME280;38819;42.692;23.342;2023-07-30T04:31:32;95159.69;;;21.91;55.34
52957;BME280;38819;42.692;23.342;2023-07-30T04:33:58;95155.84;;;21.95;55.33
52957;BME280;38819;42.692;23.342;2023-07-30T04:36:23;95154.97;;;21.91;55.57
52957;BME280;38819;42.692;23.342;2023-07-30T04:38:49;95151.88;;;21.93;55.29
52957;BME280;38819;42.692;23.342;2023-07-30T04:41:14;95149.59;;;21.98;55.42
52957;BME280;38819;42.692;23.342;2023-07-30T04:43:40;95165.00;;;22.03;55.01
52957;BME280;38819;42.692;23.342;2023-07-30T04:46:05;95161.94;;;22.08;55.27
52957;BME280;38819;42.692;23.342;2023-07-30T04:48:31;95155.75;;;22.15;54.69
52957;BME280;38819;42.692;23.342;2023-07-30T04:50:56;95159.00;;;22.20;54.85
52957;BME280;38819;42.692;23.342;2023-07-30T04:53:21;95155.66;;;22.31;54.74
52957;BME280;38819;42.692;23.342;2023-07-30T04:55:47;95157.78;;;22.41;54.36
52957;BME280;38819;42.692;23.342;2023-07-30T04:58:12;95151.84;;;22.39;54.22
52957;BME280;38819;42.692;23.342;2023-07-30T05:00:38;95162.53;;;22.44;54.41
52957;BME280;38819;42.692;23.342;2023-07-30T05:03:03;95159.41;;;22.46;54.21
52957;BME280;38819;42.692;23.342;2023-07-30T05:05:28;95162.16;;;22.46;54.18
52957;BME280;38819;42.692;23.342;2023-07-30T05:07:54;95158.72;;;22.52;54.06
52957;BME280;38819;42.692;23.342;2023-07-30T05:10:19;95162.03;;;22.65;53.45
52957;BME280;38819;42.692;23.342;2023-07-30T05:12:45;95162.56;;;22.74;53.27
52957;BME280;38819;42.692;23.342;2023-07-30T05:15:10;95152.84;;;22.81;53.29
52957;BME280;38819;42.692;23.342;2023-07-30T05:17:36;95156.03;;;22.86;53.66
52957;BME280;38819;42.692;23.342;2023-07-30T05:20:01;95150.13;;;22.84;53.96
52957;BME280;38819;42.692;23.342;2023-07-30T05:22:27;95156.03;;;22.86;53.64
52957;BME280;38819;42.692;23.342;2023-07-30T05:24:52;95152.50;;;22.86;53.70
52957;BME280;38819;42.692;23.342;2023-07-30T05:27:17;95152.53;;;22.89;53.61
52957;BME280;38819;42.692;23.342;2023-07-30T05:29:43;95161.06;;;22.77;54.14
52957;BME280;38819;42.692;23.342;2023-07-30T05:32:08;95156.53;;;22.65;54.48
52957;BME280;38819;42.692;23.342;2023-07-30T05:34:34;95157.31;;;22.62;54.73
52957;BME280;38819;42.692;23.342;2023-07-30T05:36:59;95155.38;;;22.66;54.90
52957;BME280;38819;42.692;23.342;2023-07-30T05:39:25;95161.25;;;22.65;55.27
52957;BME280;38819;42.692;23.342;2023-07-30T05:41:51;95161.34;;;22.72;54.82
52957;BME280;38819;42.692;23.342;2023-07-30T05:44:16;95170.41;;;22.72;55.09
52957;BME280;38819;42.692;23.342;2023-07-30T05:46:42;95161.09;;;22.81;55.00
52957;BME280;38819;42.692;23.342;2023-07-30T05:49:08;95164.63;;;22.81;55.42
52957;BME280;38819;42.692;23.342;2023-07-30T05:51:33;95159.91;;;22.82;55.19
52957;BME280;38819;42.692;23.342;2023-07-30T05:53:59;95166.94;;;22.75;55.20
52957;BME280;38819;42.692;23.342;2023-07-30T05:56:24;95162.66;;;22.82;54.92
52957;BME280;38819;42.692;23.342;2023-07-30T05:58:50;95163.19;;;22.91;54.28
52957;BME280;38819;42.692;23.342;2023-07-30T06:01:15;95167.50;;;22.92;54.63
52957;BME280;38819;42.692;23.342;2023-07-30T06:03:40;95175.66;;;22.81;54.98
52957;BME280;38819;42.692;23.342;2023-07-30T06:06:06;95178.16;;;22.93;54.63
52957;BME280;38819;42.692;23.342;2023-07-30T06:08:31;95169.16;;;22.97;54.09
52957;BME280;38819;42.692;23.342;2023-07-30T06:11:01;95170.41;;;23.03;54.39
52957;BME280;38819;42.692;23.342;2023-07-30T06:13:28;95172.91;;;23.11;54.57
52957;BME280;38819;42.692;23.342;2023-07-30T06:15:54;95176.00;;;23.06;55.00
52957;BME280;38819;42.692;23.342;2023-07-30T06:18:19;95168.53;;;23.07;54.59
52957;BME280;38819;42.692;23.342;2023-07-30T06:20:44;95167.81;;;23.13;54.47
52957;BME280;38819;42.692;23.342;2023-07-30T06:23:10;95166.28;;;23.16;53.65
52957;BME280;38819;42.692;23.342;2023-07-30T06:25:35;95171.09;;;23.23;53.48
52957;BME280;38819;42.692;23.342;2023-07-30T06:28:01;95164.78;;;23.22;53.24
52957;BME280;38819;42.692;23.342;2023-07-30T06:30:26;95156.59;;;23.29;53.35
52957;BME280;38819;42.692;23.342;2023-07-30T06:32:52;95166.56;;;23.41;53.01
52957;BME280;38819;42.692;23.342;2023-07-30T06:35:17;95162.41;;;23.55;52.77
52957;BME280;38819;42.692;23.342;2023-07-30T06:37:42;95162.09;;;23.63;52.52
52957;BME280;38819;42.692;23.342;2023-07-30T06:40:08;95152.16;;;23.55;52.28
52957;BME280;38819;42.692;23.342;2023-07-30T06:42:33;95167.16;;;23.58;52.40
52957;BME280;38819;42.692;23.342;2023-07-30T06:44:59;95148.56;;;23.51;52.19
52957;BME280;38819;42.692;23.342;2023-07-30T06:47:24;95141.63;;;23.64;52.27
52957;BME280;38819;42.692;23.342;2023-07-30T06:49:50;95143.19;;;23.65;52.04
52957;BME280;38819;42.692;23.342;2023-07-30T06:52:15;95140.13;;;23.71;52.09
52957;BME280;38819;42.692;23.342;2023-07-30T06:54:40;95136.16;;;23.72;51.72
52957;BME280;38819;42.692;23.342;2023-07-30T06:57:06;95134.28;;;23.79;51.74
52957;BME280;38819;42.692;23.342;2023-07-30T06:59:33;95131.25;;;23.92;51.10
52957;BME280;38819;42.692;23.342;2023-07-30T07:01:59;95127.41;;;24.03;50.50
52957;BME280;38819;42.692;23.342;2023-07-30T07:04:24;95126.69;;;24.14;50.29
52957;BME280;38819;42.692;23.342;2023-07-30T07:06:50;95122.75;;;24.11;50.25
52957;BME280;38819;42.692;23.342;2023-07-30T07:09:15;95118.47;;;24.17;49.29
52957;BME280;38819;42.692;23.342;2023-07-30T07:11:41;95123.34;;;24.38;49.03
52957;BME280;38819;42.692;23.342;2023-07-30T07:14:06;95118.66;;;24.42;49.39
52957;BME280;38819;42.692;23.342;2023-07-30T07:16:31;95109.25;;;24.51;49.16
52957;BME280;38819;42.692;23.342;2023-07-30T07:18:57;95110.38;;;24.46;48.62
52957;BME280;38819;42.692;23.342;2023-07-30T07:21:22;95108.53;;;24.57;48.63
52957;BME280;38819;42.692;23.342;2023-07-30T07:23:48;95101.41;;;24.56;48.33
52957;BME280;38819;42.692;23.342;2023-07-30T07:26:13;95108.16;;;24.66;47.99
52957;BME280;38819;42.692;23.342;2023-07-30T07:28:38;95099.13;;;24.76;47.52
52957;BME280;38819;42.692;23.342;2023-07-30T07:31:04;95095.22;;;24.85;47.62
52957;BME280;38819;42.692;23.342;2023-07-30T07:33:29;95097.25;;;25.02;46.87
52957;BME280;38819;42.692;23.342;2023-07-30T07:36:05;95097.25;;;25.02;46.27
52957;BME280;38819;42.692;23.342;2023-07-30T07:38:31;95083.47;;;25.06;45.75
52957;BME280;38819;42.692;23.342;2023-07-30T07:40:57;95085.09;;;25.18;45.54
52957;BME280;38819;42.692;23.342;2023-07-30T07:43:23;95095.03;;;25.29;45.61
52957;BME280;38819;42.692;23.342;2023-07-30T07:45:48;95097.78;;;25.29;46.10
52957;BME280;38819;42.692;23.342;2023-07-30T07:48:13;95083.91;;;25.22;45.56
52957;BME280;38819;42.692;23.342;2023-07-30T07:50:39;95090.28;;;25.30;45.48
52957;BME280;38819;42.692;23.342;2023-07-30T07:53:04;95083.97;;;25.37;45.87
52957;BME280;38819;42.692;23.342;2023-07-30T07:55:30;95087.19;;;25.49;45.41
52957;BME280;38819;42.692;23.342;2023-07-30T07:57:55;95085.19;;;25.57;45.49
52957;BME280;38819;42.692;23.342;2023-07-30T08:00:20;95089.13;;;25.49;44.87
52957;BME280;38819;42.692;23.342;2023-07-30T08:02:47;95078.88;;;25.53;44.90
52957;BME280;38819;42.692;23.342;2023-07-30T08:05:13;95075.31;;;25.45;45.17
52957;BME280;38819;42.692;23.342;2023-07-30T08:07:38;95063.06;;;25.50;45.15
52957;BME280;38819;42.692;23.342;2023-07-30T08:10:04;95067.00;;;25.52;45.08
52957;BME280;38819;42.692;23.342;2023-07-30T08:12:31;95075.34;;;25.60;44.95
52957;BME280;38819;42.692;23.342;2023-07-30T08:14:58;95068.63;;;25.64;44.32
52957;BME280;38819;42.692;23.342;2023-07-30T08:17:24;95073.38;;;25.78;44.11
52957;BME280;38819;42.692;23.342;2023-07-30T08:19:50;95068.63;;;25.75;44.81
52957;BME280;38819;42.692;23.342;2023-07-30T08:22:15;95061.91;;;25.76;44.47
52957;BME280;38819;42.692;23.342;2023-07-30T08:24:40;95069.81;;;25.81;44.19
52957;BME280;38819;42.692;23.342;2023-07-30T08:27:06;95065.47;;;25.84;44.20
52957;BME280;38819;42.692;23.342;2023-07-30T08:29:31;95056.75;;;25.89;43.84
52957;BME280;38819;42.692;23.342;2023-07-30T08:31:57;95063.09;;;25.93;43.62
52957;BME280;38819;42.692;23.342;2023-07-30T08:34:22;95059.56;;;25.96;43.53
52957;BME280;38819;42.692;23.342;2023-07-30T08:36:48;95061.94;;;26.01;43.04
52957;BME280;38819;42.692;23.342;2023-07-30T08:39:14;95048.88;;;26.09;43.10
52957;BME280;38819;42.692;23.342;2023-07-30T08:41:40;95048.06;;;26.16;42.86
52957;BME280;38819;42.692;23.342;2023-07-30T08:44:06;95045.31;;;26.27;43.07
52957;BME280;38819;42.692;23.342;2023-07-30T08:46:31;95046.47;;;26.33;42.49
52957;BME280;38819;42.692;23.342;2023-07-30T08:48:57;95044.13;;;26.31;40.88
52957;BME280;38819;42.692;23.342;2023-07-30T08:51:23;95041.72;;;26.40;40.92
52957;BME280;38819;42.692;23.342;2023-07-30T08:53:51;95045.66;;;26.47;41.12
52957;BME280;38819;42.692;23.342;2023-07-30T08:56:16;95047.22;;;26.48;40.71
52957;BME280;38819;42.692;23.342;2023-07-30T08:58:43;95034.19;;;26.48;41.04
52957;BME280;38819;42.692;23.342;2023-07-30T09:01:09;95042.44;;;26.59;40.92
52957;BME280;38819;42.692;23.342;2023-07-30T09:03:38;95037.28;;;26.65;40.24
52957;BME280;38819;42.692;23.342;2023-07-30T09:06:04;95032.16;;;26.70;40.56
52957;BME280;38819;42.692;23.342;2023-07-30T09:08:30;95029.72;;;26.79;40.98
52957;BME280;38819;42.692;23.342;2023-07-30T09:10:59;95027.72;;;26.87;40.73
52957;BME280;38819;42.692;23.342;2023-07-30T09:13:36;95024.47;;;26.99;40.91
52957;BME280;38819;42.692;23.342;2023-07-30T09:16:14;95032.38;;;27.05;39.80
52957;BME280;38819;42.692;23.342;2023-07-30T09:21:05;95024.34;;;27.25;37.73
52957;BME280;38819;42.692;23.342;2023-07-30T09:23:31;95019.19;;;27.30;36.84
52957;BME280;38819;42.692;23.342;2023-07-30T09:25:58;95027.09;;;27.35;37.89
52957;BME280;38819;42.692;23.342;2023-07-30T09:28:30;95019.09;;;27.45;37.69
52957;BME280;38819;42.692;23.342;2023-07-30T09:31:01;95021.03;;;27.51;35.83
52957;BME280;38819;42.692;23.342;2023-07-30T09:33:27;95008.34;;;27.54;34.67
52957;BME280;38819;42.692;23.342;2023-07-30T09:35:52;95001.53;;;27.62;35.38
52957;BME280;38819;42.692;23.342;2023-07-30T09:38:19;94997.47;;;27.74;35.88
52957;BME280;38819;42.692;23.342;2023-07-30T09:40:45;94990.34;;;27.77;34.98
52957;BME280;38819;42.692;23.342;2023-07-30T09:43:14;94988.66;;;27.83;34.38
52957;BME280;38819;42.692;23.342;2023-07-30T09:45:40;94990.63;;;27.86;34.13
52957;BME280;38819;42.692;23.342;2023-07-30T09:48:06;94994.94;;;27.94;34.19
52957;BME280;38819;42.692;23.342;2023-07-30T09:50:33;94984.59;;;27.98;34.15
52957;BME280;38819;42.692;23.342;2023-07-30T09:53:00;94985.03;;;27.97;35.01
52957;BME280;38819;42.692;23.342;2023-07-30T09:55:26;94983.03;;;27.97;34.88
52957;BME280;38819;42.692;23.342;2023-07-30T09:57:52;94987.81;;;27.93;35.00
52957;BME280;38819;42.692;23.342;2023-07-30T10:00:18;94978.22;;;28.01;34.88
52957;BME280;38819;42.692;23.342;2023-07-30T10:02:47;94973.75;;;28.11;34.61
52957;BME280;38819;42.692;23.342;2023-07-30T10:05:19;94979.28;;;28.15;34.68
52957;BME280;38819;42.692;23.342;2023-07-30T10:08:07;94975.63;;;28.21;34.73
52957;BME280;38819;42.692;23.342;2023-07-30T10:10:34;94968.06;;;28.25;34.23
52957;BME280;38819;42.692;23.342;2023-07-30T10:13:04;94955.78;;;28.23;34.36
52957;BME280;38819;42.692;23.342;2023-07-30T10:15:43;94956.50;;;28.31;34.27
52957;BME280;38819;42.692;23.342;2023-07-30T10:18:08;94946.38;;;28.48;34.35
52957;BME280;38819;42.692;23.342;2023-07-30T10:20:34;94950.69;;;28.52;34.40
52957;BME280;38819;42.692;23.342;2023-07-30T10:23:01;94949.09;;;28.51;34.12
52957;BME280;38819;42.692;23.342;2023-07-30T10:25:49;94946.97;;;28.66;33.89
52957;BME280;38819;42.692;23.342;2023-07-30T10:31:06;94934.97;;;28.73;33.74
52957;BME280;38819;42.692;23.342;2023-07-30T10:33:50;94946.09;;;28.73;33.92
52957;BME280;38819;42.692;23.342;2023-07-30T10:36:18;94939.75;;;28.72;33.50
52957;BME280;38819;42.692;23.342;2023-07-30T10:38:44;94939.28;;;28.77;33.60
52957;BME280;38819;42.692;23.342;2023-07-30T10:41:13;94925.84;;;28.72;33.51
52957;BME280;38819;42.692;23.342;2023-07-30T10:43:44;94927.28;;;28.84;33.59
52957;BME280;38819;42.692;23.342;2023-07-30T10:46:12;94926.75;;;28.93;34.55
52957;BME280;38819;42.692;23.342;2023-07-30T10:48:42;94921.91;;;29.00;34.11
52957;BME280;38819;42.692;23.342;2023-07-30T10:51:11;94922.56;;;29.08;33.68
52957;BME280;38819;42.692;23.342;2023-07-30T10:53:36;94917.00;;;29.08;32.76
52957;BME280;38819;42.692;23.342;2023-07-30T10:56:03;94904.69;;;29.09;32.85
52957;BME280;38819;42.692;23.342;2023-07-30T10:58:33;94895.03;;;29.17;32.76
52957;BME280;38819;42.692;23.342;2023-07-30T11:01:01;94897.94;;;29.07;33.40
52957;BME280;38819;42.692;23.342;2023-07-30T11:03:27;94889.88;;;29.16;33.76
52957;BME280;38819;42.692;23.342;2023-07-30T11:05:54;94889.78;;;29.23;33.42
52957;BME280;38819;42.692;23.342;2023-07-30T11:08:31;94881.69;;;29.32;32.81
52957;BME280;38819;42.692;23.342;2023-07-30T11:10:57;94878.72;;;29.43;32.88
52957;BME280;38819;42.692;23.342;2023-07-30T11:13:23;94875.44;;;29.48;32.73
52957;BME280;38819;42.692;23.342;2023-07-30T11:15:48;94873.00;;;29.54;32.45
52957;BME280;38819;42.692;23.342;2023-07-30T11:18:14;94866.19;;;29.55;32.73
52957;BME280;38819;42.692;23.342;2023-07-30T11:20:40;94866.31;;;29.48;32.90
52957;BME280;38819;42.692;23.342;2023-07-30T11:23:22;94865.13;;;29.49;32.73
52957;BME280;38819;42.692;23.342;2023-07-30T11:25:51;94863.13;;;29.49;32.50
52957;BME280;38819;42.692;23.342;2023-07-30T11:28:38;94848.66;;;29.58;32.19
52957;BME280;38819;42.692;23.342;2023-07-30T11:33:29;94844.97;;;29.65;32.36
52957;BME280;38819;42.692;23.342;2023-07-30T11:35:55;94853.97;;;29.72;32.99
52957;BME280;38819;42.692;23.342;2023-07-30T11:38:25;94845.16;;;29.78;31.58
52957;BME280;38819;42.692;23.342;2023-07-30T11:40:52;94841.38;;;29.88;31.59
52957;BME280;38819;42.692;23.342;2023-07-30T11:43:18;94834.59;;;29.89;31.48
52957;BME280;38819;42.692;23.342;2023-07-30T11:45:44;94835.38;;;29.89;31.43
52957;BME280;38819;42.692;23.342;2023-07-30T11:48:10;94831.44;;;29.87;31.36
52957;BME280;38819;42.692;23.342;2023-07-30T11:50:50;94833.25;;;29.97;31.33
52957;BME280;38819;42.692;23.342;2023-07-30T11:53:17;94821.09;;;30.07;31.19
52957;BME280;38819;42.692;23.342;2023-07-30T11:55:43;94823.03;;;30.10;31.09
52957;BME280;38819;42.692;23.342;2023-07-30T11:58:10;94813.81;;;30.14;30.71
52957;BME280;38819;42.692;23.342;2023-07-30T12:00:37;94822.44;;;30.19;30.46
52957;BME280;38819;42.692;23.342;2023-07-30T12:03:04;94809.66;;;30.22;30.83
52957;BME280;38819;42.692;23.342;2023-07-30T12:05:34;94806.78;;;30.25;30.37
52957;BME280;38819;42.692;23.342;2023-07-30T12:08:04;94807.50;;;30.29;30.04
52957;BME280;38819;42.692;23.342;2023-07-30T12:10:46;94794.94;;;30.41;30.36
52957;BME280;38819;42.692;23.342;2023-07-30T12:13:20;94807.78;;;30.35;30.62
52957;BME280;38819;42.692;23.342;2023-07-30T12:15:55;94795.84;;;30.35;30.50
52957;BME280;38819;42.692;23.342;2023-07-30T12:18:22;94789.44;;;30.38;30.36
52957;BME280;38819;42.692;23.342;2023-07-30T12:20:49;94781.44;;;30.40;30.52
52957;BME280;38819;42.692;23.342;2023-07-30T12:23:16;94780.94;;;30.45;30.14
52957;BME280;38819;42.692;23.342;2023-07-30T12:25:41;94767.84;;;30.42;30.04
52957;BME280;38819;42.692;23.342;2023-07-30T12:28:07;94767.44;;;30.43;30.24
52957;BME280;38819;42.692;23.342;2023-07-30T12:30:32;94765.78;;;30.46;30.30
52957;BME280;38819;42.692;23.342;2023-07-30T12:32:58;94768.16;;;30.47;30.77
52957;BME280;38819;42.692;23.342;2023-07-30T12:35:24;94759.25;;;30.53;30.37
52957;BME280;38819;42.692;23.342;2023-07-30T12:37:49;94757.59;;;30.55;30.14
52957;BME280;38819;42.692;23.342;2023-07-30T12:40:16;94761.97;;;30.56;30.30
52957;BME280;38819;42.692;23.342;2023-07-30T12:42:41;94755.97;;;30.58;29.90
52957;BME280;38819;42.692;23.342;2023-07-30T12:45:07;94754.91;;;30.68;29.68
52957;BME280;38819;42.692;23.342;2023-07-30T12:47:32;94745.78;;;30.67;29.60
52957;BME280;38819;42.692;23.342;2023-07-30T12:50:01;94740.19;;;30.67;30.36
52957;BME280;38819;42.692;23.342;2023-07-30T12:52:26;94736.63;;;30.67;30.39
52957;BME280;38819;42.692;23.342;2023-07-30T12:54:52;94727.72;;;30.72;29.68